Latest Weather Observations for Oakey

IDQ60901

Issued at 3:51 am EST Tuesday 21 February 2017 (issued every 10 minutes, with the page automatically refreshed every 10 minutes)

About weather observations | Map of Brisbane area stations | Latest observations for Brisbane area | Other Formats
Station Details ID: 041359 Name: OAKEY AERO Lat: -27.40 Lon: 151.74 Height: 405.69 m
Data from the previous 72 hours. | See also: Recent months at Oakey
Date/Time
EST
Temp
°C
App
Temp
°C
Dew
Point
°C
Rel
Hum
%
Delta-T
°C
Wind Press
QNH
hPa
Press
MSL
hPa
Rain since
9am
mm
Dir  Spd
km/h
Gust
km/h
Spd
kts
Gust
kts
21/03:30am 18.0 19.0 16.3 90 1.0 E 6 7 3 4 1015.8 1013.5 0.0
21/03:00am 18.0 18.9 16.5 91 0.9 ESE 7 9 4 5 1015.7 1013.4 0.0
21/02:30am 18.4 19.3 16.2 87 1.3 ENE 6 7 3 4 1015.6 1013.3 0.0
21/02:00am 18.8 19.7 16.2 85 1.6 ENE 6 9 3 5 1015.6 1013.3 0.0
21/01:30am 18.9 19.7 15.8 82 1.9 ENE 6 7 3 4 1015.6 1013.3 0.0
21/01:00am 18.6 20.1 15.8 84 1.7 SE 2 6 1 3 1016.1 1013.8 0.0
21/12:30am 19.0 18.3 15.3 79 2.2 ESE 13 13 7 7 1016.3 1014.0 0.0
21/12:00am 19.5 19.1 15.2 76 2.6 ENE 11 13 6 7 1016.6 1014.4 0.0
 
Date/Time
EST
Temp
°C
App
Temp
°C
Dew
Point
°C
Rel
Hum
%
Delta-T
°C
Wind Press
QNH
hPa
Press
MSL
hPa
Rain since
9am
mm
Dir  Spd
km/h
Gust
km/h
Spd
kts
Gust
kts
20/11:30pm 19.8 18.7 15.2 75 2.8 E 15 19 8 10 1016.4 1014.1 0.0
20/11:00pm 20.2 18.1 14.6 70 3.3 E 19 22 10 12 1016.4 1014.1 0.0
20/10:30pm 18.5 17.8 14.2 76 2.5 ESE 11 15 6 8 1016.2 1013.9 0.0
20/10:00pm 19.0 17.7 13.8 72 3.0 E 13 28 7 15 1016.2 1013.9 0.0
20/09:30pm 19.5 20.1 15.8 79 2.2 NE 7 9 4 5 1015.9 1013.6 0.0
20/09:00pm 20.6 21.5 16.0 75 2.8 NNE 6 9 3 5 1015.7 1013.4 0.0
20/08:30pm 21.2 21.9 15.5 70 3.5 SW 6 7 3 4 1015.3 1013.1 0.0
20/08:00pm 23.1 22.8 13.3 54 5.8 SW 7 9 4 5 1014.9 1012.7 0.0
20/07:30pm 23.2 21.9 12.5 51 6.2 SW 11 13 6 7 1014.4 1012.2 0.0
20/07:00pm 23.8 22.7 13.1 51 6.3 WSW 11 11 6 6 1013.9 1011.6 0.0
20/06:30pm 24.5 22.6 11.8 45 7.3 WSW 13 15 7 8 1013.6 1011.3 0.0
20/06:00pm 25.5 23.2 10.5 39 8.5 WSW 13 15 7 8 1013.2 1010.9 0.0
20/05:30pm 26.5 22.8 8.0 31 10.1 WSW 17 20 9 11 1012.7 1010.5 0.0
20/05:00pm 27.4 23.3 6.2 26 11.3 WSW 17 20 9 11 1012.4 1010.2 0.0
20/04:30pm 27.7 23.2 5.9 25 11.6 WSW 19 24 10 13 1012.2 1010.0 0.0
20/04:00pm 28.0 23.3 6.2 25 11.7 W 20 30 11 16 1011.8 1009.5 0.0
20/03:30pm 28.7 25.2 7.3 26 11.7 W 15 28 8 15 1011.7 1009.4 0.0
20/03:00pm 28.5 23.9 6.6 25 11.8 W 20 28 11 15 1011.6 1009.3 0.0
20/02:30pm 28.4 24.7 8.1 28 11.2 W 17 24 9 13 1011.7 1009.4 0.0
20/02:00pm 28.1 25.0 7.4 27 11.3 SW 13 20 7 11 1012.0 1009.7 0.0
20/01:30pm 27.6 25.1 6.4 26 11.4 SSW 9 17 5 9 1012.2 1010.0 0.0
20/01:00pm 27.5 24.2 7.9 29 10.8 WSW 15 24 8 13 1012.6 1010.4 0.0
20/12:30pm 27.0 23.3 6.4 27 11.0 SW 15 24 8 13 1013.0 1010.7 0.0
20/12:00pm 26.6 22.4 5.5 26 11.1 SSW 17 30 9 16 1013.2 1010.9 0.0
20/11:30am 26.5 22.0 6.0 27 10.8 SSW 19 26 10 14 1013.6 1011.3 0.0
20/11:00am 25.9 22.2 9.3 35 9.3 S 19 32 10 17 1013.9 1011.6 0.0
20/10:30am 25.1 21.4 8.1 34 9.2 SSW 17 26 9 14 1014.1 1011.8 0.0
20/10:00am 24.0 21.7 11.7 46 7.1 S 15 20 8 11 1014.2 1011.9 0.0
20/09:30am 23.0 21.3 13.5 55 5.6 SSW 15 22 8 12 1014.5 1012.3 0.0
20/09:00am 21.7 20.6 14.4 63 4.4 S 13 20 7 11 1014.4 1012.2 17.4
20/08:30am 20.8 18.7 14.7 68 3.6 SW 19 24 10 13 1014.5 1012.3 17.4
20/08:00am 20.0 19.3 16.4 80 2.2 SSW 15 20 8 11 1014.4 1012.2 17.4
20/07:30am 19.5 19.7 16.7 84 1.7 SW 11 17 6 9 1014.0 1011.7 17.4
20/07:00am 19.1 19.1 17.2 89 1.2 SW 13 17 7 9 1013.6 1011.3 17.4
20/06:30am 18.8 17.9 16.9 89 1.2 SW 17 22 9 12 1013.1 1010.8 17.4
20/06:00am 18.8 17.6 17.6 93 0.7 WSW 20 24 11 13 1012.3 1010.1 17.4
20/05:30am 19.0 17.8 18.3 96 0.4 WSW 22 28 12 15 1011.6 1009.3 17.4
20/05:04am 19.1 19.0 18.8 98 0.2 WSW 17 24 9 13 1011.4 1009.1 17.4
20/05:00am 19.1 19.0 18.8 98 0.2 WSW 17 20 9 11 1011.4 1009.1 17.4
20/04:30am 19.2 19.3 18.4 95 0.5 W 15 17 8 9 1011.2 1008.9 17.4
20/04:00am 19.4 20.7 18.4 94 0.6 W 9 13 5 7 1010.9 1008.6 17.4
20/03:30am 19.4 20.8 18.6 95 0.5 WSW 9 13 5 7 1010.6 1008.3 17.4
20/03:00am 19.5 22.5 18.5 94 0.6 CALM 0 0 0 0 1010.1 1007.9 17.4
20/02:30am 19.5 20.5 18.7 95 0.5 WSW 11 15 6 8 1010.2 1008.0 17.4
20/02:00am 19.7 20.0 18.7 94 0.6 WSW 15 19 8 10 1010.5 1008.2 17.4
20/01:30am 19.7 18.3 18.9 95 0.5 WSW 24 28 13 15 1010.7 1008.4 17.4
20/01:00am 20.0 20.9 18.5 91 1.0 NE 11 15 6 8 1009.9 1007.7 17.4
20/12:30am 19.8 21.3 19.0 95 0.5 NNE 9 13 5 7 1010.8 1008.5 17.4
20/12:00am 19.6 20.7 18.9 96 0.4 ENE 11 15 6 8 1010.8 1008.5 17.4
 
Date/Time
EST
Temp
°C
App
Temp
°C
Dew
Point
°C
Rel
Hum
%
Delta-T
°C
Wind Press
QNH
hPa
Press
MSL
hPa
Rain since
9am
mm
Dir  Spd
km/h
Gust
km/h
Spd
kts
Gust
kts
19/11:30pm 19.5 21.0 18.8 96 0.4 NNE 9 13 5 7 1011.6 1009.3 17.4
19/11:00pm 19.4 20.5 18.9 97 0.3 ENE 11 15 6 8 1011.7 1009.4 17.4
19/10:30pm 19.3 20.4 18.8 97 0.3 E 11 13 6 7 1012.3 1010.1 17.4
19/10:25pm 19.2 20.2 18.7 97 0.3 ENE 11 13 6 7 1012.3 1010.1 17.4
19/10:00pm 19.2 19.8 18.5 96 0.4 SSW 13 15 7 8 1012.5 1010.3 15.8
19/09:30pm 19.0 18.3 18.3 96 0.4 SW 19 26 10 14 1012.5 1010.3 12.8
19/09:15pm 19.4 18.5 18.1 92 0.8 SW 20 30 11 16 1012.6 1010.4 7.8
19/09:00pm 19.6 16.2 17.7 89 1.2 SW 32 41 17 22 1012.0 1009.7 7.0
19/08:50pm 20.4 16.6 18.2 87 1.4 WSW 35 41 19 22 1012.1 1009.9 7.0
19/08:49pm 20.5 17.1 18.1 86 1.5 WSW 33 41 18 22 1012.1 1009.9 7.0
19/08:38pm 21.8 21.4 18.8 83 1.9 W 19 39 10 21 1011.8 1009.5 7.0
19/08:30pm 22.4 24.6 20.5 89 1.3 W 9 11 5 6 1011.3 1009.0 7.0
19/08:00pm 22.2 26.1 20.3 89 1.2 CALM 0 6 0 3 1010.8 1008.5 7.0
19/07:30pm 22.0 24.7 20.3 90 1.1 NNE 6 7 3 4 1010.5 1008.2 7.0
19/07:00pm 22.2 26.0 20.1 88 1.4 CALM 0 0 0 0 1009.8 1007.5 7.0
19/06:30pm 22.0 24.8 20.5 91 1.0 ENE 6 9 3 5 1009.2 1006.9 7.0
19/06:00pm 22.0 24.3 20.6 92 0.9 NNE 9 13 5 7 1008.5 1006.2 7.0
19/05:30pm 22.0 23.5 20.6 92 0.9 NNE 13 15 7 8 1008.2 1005.9 7.0
19/05:00pm 22.1 22.8 20.4 90 1.1 N 17 24 9 13 1008.0 1005.7 6.8
19/04:30pm 21.8 21.5 20.3 91 1.0 NNW 22 28 12 15 1008.8 1006.5 6.4
19/04:00pm 21.8 21.4 18.8 83 1.9 NNW 19 22 10 12 1008.5 1006.2 5.8
19/03:37pm 22.5 22.5 20.2 87 1.5 NW 20 24 11 13 1008.7 1006.4 5.0
19/03:30pm 22.3 21.7 19.8 86 1.6 NNW 22 28 12 15 1008.8 1006.5 5.0
19/03:03pm 24.8 23.5 19.8 74 3.3 W 26 35 14 19 1008.6 1006.3 1.4
19/03:00pm 25.8 24.6 20.1 71 3.8 W 26 35 14 19 1008.4 1006.1 0.4
19/02:30pm 27.5 26.8 19.6 62 5.2 WNW 22 28 12 15 1008.7 1006.4 0.4
19/02:00pm 28.0 26.7 19.0 58 5.9 NNW 24 30 13 16 1008.9 1006.6 0.4
19/01:30pm 27.9 26.2 18.0 55 6.4 NW 24 32 13 17 1009.2 1006.9 0.4
19/01:00pm 27.5 26.8 18.2 57 6.0 NW 19 24 10 13 1009.4 1007.1 0.4
19/12:30pm 27.1 28.1 17.8 56 6.0 NW 9 20 5 11 1009.5 1007.2 0.4
19/12:00pm 26.3 28.2 18.9 63 4.8 NNW 7 11 4 6 1009.7 1007.4 0.4
19/11:30am 25.6 27.6 18.8 66 4.4 NNE 6 11 3 6 1010.0 1007.8 0.4
19/11:00am 24.6 27.9 19.0 71 3.6 CALM 0 0 0 0 1010.2 1008.0 0.4
19/10:30am 23.5 26.6 19.6 79 2.5 NE 2 6 1 3 1010.5 1008.2 0.4
19/10:00am 22.7 24.9 19.5 82 2.1 ENE 7 9 4 5 1010.2 1008.0 0.4
19/09:30am 22.5 26.2 20.0 86 1.6 CALM 0 0 0 0 1010.5 1008.2 0.4
19/09:00am 22.3 24.2 19.7 85 1.7 N 9 13 5 7 1010.7 1008.4 14.2
19/08:30am 22.2 24.5 19.4 84 1.8 NW 6 9 3 5 1010.4 1008.1 14.0
19/08:00am 21.8 23.5 19.4 86 1.6 E 9 13 5 7 1010.2 1008.0 14.0
19/07:30am 21.4 22.8 19.5 89 1.2 ENE 11 15 6 8 1009.9 1007.7 14.0
19/07:00am 21.1 23.2 18.9 87 1.4 ESE 6 7 3 4 1009.7 1007.4 13.4
19/06:30am 21.0 22.9 19.7 92 0.8 SW 9 13 5 7 1009.7 1007.4 13.4
19/06:00am 20.7 23.5 18.8 89 1.2 SSE 2 7 1 4 1009.7 1007.4 13.4
19/05:30am 20.7 22.6 19.0 90 1.1 E 7 9 4 5 1009.8 1007.5 13.2
19/05:00am 20.4 23.3 18.3 88 1.3 CALM 0 6 0 3 1010.2 1008.0 13.2
19/04:30am 20.4 21.8 18.7 90 1.1 NE 9 15 5 8 1010.2 1008.0 13.2
19/04:00am 20.1 19.0 18.6 91 1.0 ENE 22 30 12 16 1009.7 1007.4 13.2
19/03:30am 20.1 19.6 18.6 91 1.0 NE 19 26 10 14 1010.8 1008.5 12.0
19/03:00am 20.3 19.8 19.0 92 0.8 NE 20 26 11 14 1011.4 1009.1 11.4
19/02:30am 20.4 21.2 19.1 92 0.8 NE 13 17 7 9 1011.6 1009.3 11.0
19/02:00am 20.6 22.0 18.7 89 1.2 NW 9 11 5 6 1011.8 1009.5 10.2
19/01:30am 20.6 22.5 18.9 90 1.1 ENE 7 9 4 5 1011.7 1009.4 9.8
19/01:00am 20.5 21.8 19.2 92 0.8 SSE 11 13 6 7 1012.2 1010.0 9.6
19/12:30am 20.5 21.0 19.3 93 0.8 SW 15 22 8 12 1012.7 1010.5 8.8
19/12:22am 20.5 21.0 19.3 93 0.8 SW 15 19 8 10 1012.8 1010.6 8.4
19/12:00am 20.5 20.3 19.3 93 0.8 SW 19 28 10 15 1012.8 1010.6 6.6
 
Date/Time
EST
Temp
°C
App
Temp
°C
Dew
Point
°C
Rel
Hum
%
Delta-T
°C
Wind Press
QNH
hPa
Press
MSL
hPa
Rain since
9am
mm
Dir  Spd
km/h
Gust
km/h
Spd
kts
Gust
kts
18/11:59pm 20.6 20.4 19.4 93 0.8 SW 19 28 10 15 1012.8 1010.6 6.4
18/11:30pm 20.9 19.6 19.0 89 1.2 SW 24 33 13 18 1013.1 1010.8 4.4
18/11:02pm 21.0 17.9 18.9 88 1.3 SW 33 43 18 23 1012.6 1010.4 4.0
18/11:00pm 21.1 17.7 19.0 88 1.3 SW 35 46 19 25 1012.7 1010.5 3.8
18/10:39pm 22.9 18.2 18.7 77 2.7 SSW 41 65 22 35 1012.4 1010.2 1.4
18/10:32pm 26.5 22.9 17.3 57 5.8 SSW 32 59 17 32 1011.7 1009.4 0.0
18/10:30pm 27.5 23.6 16.5 51 6.9 SSW 32 54 17 29 1011.7 1009.4 0.0
18/10:25pm 26.2 23.1 17.6 59 5.5 SW 30 54 16 29 1011.3 1009.0 0.0
18/10:23pm 26.1 23.8 17.5 59 5.5 WSW 26 54 14 29 1011.1 1008.8 0.0
18/10:21pm 26.2 24.9 17.3 58 5.7 WNW 20 54 11 29 1011.2 1008.9 0.0
18/10:20pm 26.3 25.2 17.4 58 5.7 NNW 19 43 10 23 1011.2 1008.9 0.0
18/10:00pm 27.3 24.9 16.3 51 6.9 NE 24 28 13 15 1009.1 1006.8 0.0
18/09:30pm 27.7 24.9 16.3 49 7.2 ENE 26 35 14 19 1008.6 1006.3 0.0
18/09:00pm 28.3 25.4 16.2 47 7.6 ENE 26 32 14 17 1008.7 1006.4 0.0
18/08:30pm 29.1 25.6 16.6 46 7.9 ENE 30 39 16 21 1008.0 1005.7 0.0
18/08:00pm 29.9 27.2 16.7 45 8.4 ENE 26 35 14 19 1007.9 1005.6 0.0
18/07:30pm 30.5 27.0 16.5 43 8.9 ENE 30 39 16 21 1007.5 1005.2 0.0
18/07:00pm 32.2 29.7 16.1 38 10.3 E 24 32 13 17 1007.0 1004.7 0.0
18/06:30pm 33.1 29.7 14.7 33 11.5 NE 26 32 14 17 1006.5 1004.2 0.0
18/06:00pm 34.5 30.4 14.9 31 12.4 E 30 37 16 20 1006.1 1003.8 0.0
18/05:52pm 34.7 32.4 14.6 30 12.6 E 20 35 11 19 1006.1 1003.8 0.0
18/05:30pm 35.6 35.8 13.1 25 13.9 NE 4 15 2 8 1006.1 1003.8 0.0
18/05:00pm 36.1 36.1 13.6 26 14.0 N 6 13 3 7 1006.2 1003.9 0.0
18/04:30pm 36.9 35.4 13.0 24 14.8 W 13 19 7 10 1006.7 1004.4 0.0
18/04:00pm 36.9 34.2 13.0 24 14.8 WNW 19 28 10 15 1007.0 1004.7 0.0
18/03:30pm 36.4 33.6 13.2 25 14.4 W 20 30 11 16 1007.5 1005.2 0.0
18/03:00pm 37.1 33.4 13.8 25 14.6 WNW 26 35 14 19 1008.1 1005.8 0.0
18/02:30pm 36.7 33.2 13.5 25 14.4 W 24 39 13 21 1008.5 1006.2 0.0
18/02:20pm 36.9 33.9 13.6 24 14.5 W 22 33 12 18 1008.6 1006.3 0.0
18/02:00pm 36.0 33.3 13.5 26 14.0 WNW 20 35 11 19 1008.8 1006.5 0.0
18/01:30pm 36.9 34.8 13.6 24 14.5 W 17 33 9 18 1009.3 1007.0 0.0
18/01:00pm 35.9 33.7 13.4 26 14.0 W 17 32 9 17 1009.9 1007.7 0.0
18/12:30pm 34.8 32.1 13.0 26 13.4 WNW 19 28 10 15 1010.4 1008.1 0.0
18/12:00pm 34.1 32.2 14.1 30 12.5 NW 17 30 9 16 1010.5 1008.2 0.0
18/11:30am 33.4 31.8 14.0 31 12.0 NW 15 28 8 15 1011.1 1008.8 0.0
18/11:00am 32.4 31.2 14.1 33 11.3 NNW 13 24 7 13 1011.5 1009.2 0.0
18/10:30am 31.4 30.9 15.0 37 10.2 NNE 11 19 6 10 1011.8 1009.5 0.0
18/10:00am 29.6 28.9 15.3 41 8.9 N 13 19 7 10 1012.3 1010.1 0.0
18/09:30am 28.7 28.5 15.6 45 8.2 NNE 11 20 6 11 1012.6 1010.4 0.0
18/09:00am 27.5 27.2 15.5 48 7.5 N 11 19 6 10 1012.8 1010.6 0.0
18/08:30am 27.0 26.8 15.7 50 7.0 N 11 17 6 9 1013.3 1011.0 0.0
18/08:00am 25.2 24.9 15.5 55 6.0 N 11 17 6 9 1013.6 1011.3 0.0
18/07:30am 24.6 24.5 15.0 55 5.8 NNW 9 15 5 8 1013.8 1011.5 0.0
18/07:00am 24.3 23.8 15.8 59 5.2 NE 13 17 7 9 1013.5 1011.2 0.0
18/06:30am 22.4 23.1 15.5 65 4.2 NNE 6 9 3 5 1013.7 1011.4 0.0
18/06:00am 21.9 20.9 15.5 67 3.9 NE 15 20 8 11 1013.7 1011.4 0.0
18/05:30am 21.9 20.6 15.7 68 3.8 NE 17 20 9 11 1013.5 1011.2 0.0
18/05:00am 22.5 21.6 15.8 66 4.1 NNE 15 24 8 13 1013.7 1011.4 0.0
18/04:30am 23.1 21.9 16.2 65 4.3 NNE 17 20 9 11 1013.3 1011.0 0.0
18/04:00am 23.5 22.8 16.3 64 4.5 NE 15 28 8 15 1013.6 1011.3 0.0

Latest Capital City Observations: Canberra | Sydney | Melbourne | Brisbane | Adelaide | Perth | Hobart | Darwin

Other Formats:

Comma delimited format used in spreadsheet applications
http://www.bom.gov.au/fwo/IDQ60901/IDQ60901.94552.axf

JavaScript Object Notation format (JSON) in row-major order
http://www.bom.gov.au/fwo/IDQ60901/IDQ60901.94552.json